sensor_id;sensor_type;location;lat;lon;timestamp;pressure;altitude;pressure_sealevel;temperature;humidity
49423;BME280;36998;51.974;20.150;2022-10-29T00:01:43;100483.84;;;15.13;65.79
49423;BME280;36998;51.974;20.150;2022-10-29T00:04:09;100473.34;;;15.10;65.58
49423;BME280;36998;51.974;20.150;2022-10-29T00:06:34;100479.16;;;15.07;65.71
49423;BME280;36998;51.974;20.150;2022-10-29T00:09:00;100471.56;;;15.03;65.90
49423;BME280;36998;51.974;20.150;2022-10-29T00:11:25;100470.72;;;15.02;65.86
49423;BME280;36998;51.974;20.150;2022-10-29T00:13:56;100479.25;;;14.99;65.69
49423;BME280;36998;51.974;20.150;2022-10-29T00:16:24;100476.91;;;14.96;65.88
49423;BME280;36998;51.974;20.150;2022-10-29T00:18:50;100483.56;;;14.93;65.96
49423;BME280;36998;51.974;20.150;2022-10-29T00:21:21;100481.03;;;14.92;65.95
49423;BME280;36998;51.974;20.150;2022-10-29T00:23:48;100484.59;;;14.92;65.70
49423;BME280;36998;51.974;20.150;2022-10-29T00:26:14;100475.59;;;14.92;65.87
49423;BME280;36998;51.974;20.150;2022-10-29T00:28:40;100471.38;;;14.89;65.98
49423;BME280;36998;51.974;20.150;2022-10-29T00:31:16;100480.38;;;14.90;65.58
49423;BME280;36998;51.974;20.150;2022-10-29T00:33:43;100482.44;;;14.88;65.74
49423;BME280;36998;51.974;20.150;2022-10-29T00:36:14;100472.78;;;14.85;65.87
49423;BME280;36998;51.974;20.150;2022-10-29T00:38:41;100471.75;;;14.86;65.40
49423;BME280;36998;51.974;20.150;2022-10-29T00:41:10;100466.00;;;14.81;65.47
49423;BME280;36998;51.974;20.150;2022-10-29T00:43:37;100466.22;;;14.80;65.59
49423;BME280;36998;51.974;20.150;2022-10-29T00:46:15;100466.59;;;14.77;65.73
49423;BME280;36998;51.974;20.150;2022-10-29T00:48:44;100462.34;;;14.74;65.74
49423;BME280;36998;51.974;20.150;2022-10-29T00:51:13;100464.44;;;14.72;65.58
49423;BME280;36998;51.974;20.150;2022-10-29T00:53:47;100460.19;;;14.69;65.65
49423;BME280;36998;51.974;20.150;2022-10-29T00:56:15;100460.56;;;14.66;65.59
49423;BME280;36998;51.974;20.150;2022-10-29T00:58:40;100461.78;;;14.64;65.77
49423;BME280;36998;51.974;20.150;2022-10-29T01:01:06;100464.69;;;14.62;65.85
49423;BME280;36998;51.974;20.150;2022-10-29T01:03:32;100459.44;;;14.61;65.78
49423;BME280;36998;51.974;20.150;2022-10-29T01:05:58;100464.22;;;14.59;65.98
49423;BME280;36998;51.974;20.150;2022-10-29T01:08:25;100469.84;;;14.57;65.52
49423;BME280;36998;51.974;20.150;2022-10-29T01:11:14;100471.91;;;14.55;65.96
49423;BME280;36998;51.974;20.150;2022-10-29T01:17:04;100463.97;;;14.68;65.09
49423;BME280;36998;51.974;20.150;2022-10-29T01:25:35;100469.91;;;14.49;65.74
49423;BME280;36998;51.974;20.150;2022-10-29T01:36:32;100449.84;;;14.50;65.46
49423;BME280;36998;51.974;20.150;2022-10-29T01:39:13;100450.00;;;14.48;65.62
49423;BME280;36998;51.974;20.150;2022-10-29T01:44:53;100451.03;;;14.47;65.38
49423;BME280;36998;51.974;20.150;2022-10-29T01:47:23;100447.69;;;14.45;65.31
49423;BME280;36998;51.974;20.150;2022-10-29T01:49:53;100443.09;;;14.46;65.43
49423;BME280;36998;51.974;20.150;2022-10-29T01:52:24;100442.72;;;14.49;65.39
49423;BME280;36998;51.974;20.150;2022-10-29T01:54:52;100446.94;;;14.51;65.14
49423;BME280;36998;51.974;20.150;2022-10-29T01:57:35;100435.91;;;14.53;65.42
49423;BME280;36998;51.974;20.150;2022-10-29T02:00:05;100441.16;;;14.55;65.12
49423;BME280;36998;51.974;20.150;2022-10-29T02:03:05;100428.59;;;14.54;65.11
49423;BME280;36998;51.974;20.150;2022-10-29T02:05:46;100421.28;;;14.54;65.02
49423;BME280;36998;51.974;20.150;2022-10-29T02:08:37;100411.06;;;14.56;64.98
49423;BME280;36998;51.974;20.150;2022-10-29T02:11:23;100408.34;;;14.56;64.84
49423;BME280;36998;51.974;20.150;2022-10-29T02:14:02;100403.09;;;14.55;64.76
49423;BME280;36998;51.974;20.150;2022-10-29T02:16:29;100399.16;;;14.57;64.82
49423;BME280;36998;51.974;20.150;2022-10-29T02:18:56;100401.88;;;14.57;64.73
49423;BME280;36998;51.974;20.150;2022-10-29T02:21:22;100403.56;;;14.58;64.75
49423;BME280;36998;51.974;20.150;2022-10-29T02:23:48;100405.91;;;14.61;64.62
49423;BME280;36998;51.974;20.150;2022-10-29T02:26:14;100412.38;;;14.60;64.75
49423;BME280;36998;51.974;20.150;2022-10-29T02:28:40;100412.22;;;14.62;64.45
49423;BME280;36998;51.974;20.150;2022-10-29T02:31:06;100409.28;;;14.63;64.68
49423;BME280;36998;51.974;20.150;2022-10-29T02:33:31;100402.81;;;14.64;64.30
49423;BME280;36998;51.974;20.150;2022-10-29T02:35:57;100402.66;;;14.66;64.30
49423;BME280;36998;51.974;20.150;2022-10-29T02:38:22;100405.38;;;14.66;64.39
49423;BME280;36998;51.974;20.150;2022-10-29T02:40:48;100402.66;;;14.66;64.43
49423;BME280;36998;51.974;20.150;2022-10-29T02:43:13;100395.34;;;14.66;64.38
49423;BME280;36998;51.974;20.150;2022-10-29T02:45:39;100395.34;;;14.66;64.40
49423;BME280;36998;51.974;20.150;2022-10-29T02:48:04;100394.97;;;14.69;64.30
49423;BME280;36998;51.974;20.150;2022-10-29T02:50:30;100390.34;;;14.70;64.02
49423;BME280;36998;51.974;20.150;2022-10-29T02:52:56;100385.59;;;14.72;64.15
49423;BME280;36998;51.974;20.150;2022-10-29T02:55:29;100388.94;;;14.74;63.98
49423;BME280;36998;51.974;20.150;2022-10-29T02:57:54;100386.06;;;14.75;63.99
49423;BME280;36998;51.974;20.150;2022-10-29T03:00:20;100380.88;;;14.81;64.14
49423;BME280;36998;51.974;20.150;2022-10-29T03:02:49;100372.56;;;14.82;63.85
49423;BME280;36998;51.974;20.150;2022-10-29T03:05:15;100366.53;;;14.87;63.53
49423;BME280;36998;51.974;20.150;2022-10-29T03:07:40;100379.75;;;14.90;63.72
49423;BME280;36998;51.974;20.150;2022-10-29T03:10:06;100375.63;;;14.94;63.46
49423;BME280;36998;51.974;20.150;2022-10-29T03:12:33;100366.44;;;14.95;63.63
49423;BME280;36998;51.974;20.150;2022-10-29T03:14:58;100364.34;;;14.97;63.21
49423;BME280;36998;51.974;20.150;2022-10-29T03:17:24;100359.19;;;15.02;63.39
49423;BME280;36998;51.974;20.150;2022-10-29T03:19:50;100359.47;;;15.07;63.04
49423;BME280;36998;51.974;20.150;2022-10-29T03:22:15;100363.69;;;15.10;62.72
49423;BME280;36998;51.974;20.150;2022-10-29T03:24:41;100374.19;;;15.13;62.88
49423;BME280;36998;51.974;20.150;2022-10-29T03:27:06;100383.00;;;15.15;62.84
49423;BME280;36998;51.974;20.150;2022-10-29T03:29:31;100388.25;;;15.16;63.00
49423;BME280;36998;51.974;20.150;2022-10-29T03:31:57;100383.25;;;15.20;62.85
49423;BME280;36998;51.974;20.150;2022-10-29T03:34:22;100376.97;;;15.19;62.83
49423;BME280;36998;51.974;20.150;2022-10-29T03:36:48;100395.41;;;15.17;62.70
49423;BME280;36998;51.974;20.150;2022-10-29T03:39:13;100387.22;;;15.17;62.56
49423;BME280;36998;51.974;20.150;2022-10-29T03:41:39;100389.09;;;15.17;62.47
49423;BME280;36998;51.974;20.150;2022-10-29T03:44:04;100390.13;;;15.16;62.58
49423;BME280;36998;51.974;20.150;2022-10-29T03:46:30;100393.06;;;15.14;62.82
49423;BME280;36998;51.974;20.150;2022-10-29T03:48:55;100392.38;;;15.12;62.98
49423;BME280;36998;51.974;20.150;2022-10-29T03:51:21;100389.66;;;15.12;62.73
49423;BME280;36998;51.974;20.150;2022-10-29T03:53:46;100384.22;;;15.12;63.04
49423;BME280;36998;51.974;20.150;2022-10-29T03:56:13;100377.75;;;15.13;62.75
49423;BME280;36998;51.974;20.150;2022-10-29T03:58:38;100375.69;;;15.15;62.83
49423;BME280;36998;51.974;20.150;2022-10-29T04:01:06;100364.41;;;15.18;62.83
49423;BME280;36998;51.974;20.150;2022-10-29T04:03:33;100363.38;;;15.19;62.61
49423;BME280;36998;51.974;20.150;2022-10-29T04:06:01;100359.06;;;15.25;62.48
49423;BME280;36998;51.974;20.150;2022-10-29T04:08:27;100353.03;;;15.30;62.26
49423;BME280;36998;51.974;20.150;2022-10-29T04:10:52;100341.38;;;15.36;62.46
49423;BME280;36998;51.974;20.150;2022-10-29T04:13:18;100351.88;;;15.39;62.23
49423;BME280;36998;51.974;20.150;2022-10-29T04:15:44;100355.88;;;15.43;62.15
49423;BME280;36998;51.974;20.150;2022-10-29T04:18:10;100356.34;;;15.46;62.05
49423;BME280;36998;51.974;20.150;2022-10-29T04:20:37;100357.84;;;15.49;61.80
49423;BME280;36998;51.974;20.150;2022-10-29T04:23:03;100342.84;;;15.53;62.07
49423;BME280;36998;51.974;20.150;2022-10-29T04:25:29;100330.91;;;15.54;61.74
49423;BME280;36998;51.974;20.150;2022-10-29T04:27:54;100341.19;;;15.59;61.81
49423;BME280;36998;51.974;20.150;2022-10-29T04:30:21;100355.91;;;15.64;61.48
49423;BME280;36998;51.974;20.150;2022-10-29T04:32:46;100343.97;;;15.65;61.64
49423;BME280;36998;51.974;20.150;2022-10-29T04:35:12;100347.63;;;15.73;61.65
49423;BME280;36998;51.974;20.150;2022-10-29T04:37:37;100346.63;;;15.74;61.52
49423;BME280;36998;51.974;20.150;2022-10-29T04:40:03;100356.91;;;15.78;61.46
49423;BME280;36998;51.974;20.150;2022-10-29T04:42:34;100355.69;;;15.81;61.11
49423;BME280;36998;51.974;20.150;2022-10-29T04:45:00;100354.00;;;15.80;61.36
49423;BME280;36998;51.974;20.150;2022-10-29T04:47:25;100343.50;;;15.77;61.44
49423;BME280;36998;51.974;20.150;2022-10-29T04:49:51;100344.28;;;15.71;61.46
49423;BME280;36998;51.974;20.150;2022-10-29T04:52:16;100345.84;;;15.65;61.68
49423;BME280;36998;51.974;20.150;2022-10-29T04:54:41;100349.81;;;15.62;61.87
49423;BME280;36998;51.974;20.150;2022-10-29T04:57:07;100362.13;;;15.58;61.54
49423;BME280;36998;51.974;20.150;2022-10-29T04:59:32;100365.25;;;15.55;61.55
49423;BME280;36998;51.974;20.150;2022-10-29T05:01:58;100364.19;;;15.56;61.67
49423;BME280;36998;51.974;20.150;2022-10-29T05:04:23;100378.00;;;15.55;61.41
49423;BME280;36998;51.974;20.150;2022-10-29T05:06:49;100380.28;;;15.51;62.03
49423;BME280;36998;51.974;20.150;2022-10-29T05:09:14;100379.16;;;15.45;61.89
49423;BME280;36998;51.974;20.150;2022-10-29T05:11:40;100374.69;;;15.38;62.20
49423;BME280;36998;51.974;20.150;2022-10-29T05:14:05;100380.22;;;15.30;62.35
49423;BME280;36998;51.974;20.150;2022-10-29T05:16:31;100388.31;;;15.23;62.65
49423;BME280;36998;51.974;20.150;2022-10-29T05:18:57;100401.94;;;15.23;62.24
49423;BME280;36998;51.974;20.150;2022-10-29T05:21:22;100402.97;;;15.22;62.62
49423;BME280;36998;51.974;20.150;2022-10-29T05:23:48;100399.41;;;15.21;62.75
49423;BME280;36998;51.974;20.150;2022-10-29T05:26:13;100394.72;;;15.15;62.76
49423;BME280;36998;51.974;20.150;2022-10-29T05:28:39;100395.47;;;15.09;63.02
49423;BME280;36998;51.974;20.150;2022-10-29T05:31:04;100394.19;;;15.05;63.12
49423;BME280;36998;51.974;20.150;2022-10-29T05:33:30;100391.84;;;15.02;63.01
49423;BME280;36998;51.974;20.150;2022-10-29T05:35:58;100392.41;;;14.97;63.39
49423;BME280;36998;51.974;20.150;2022-10-29T05:38:24;100391.75;;;14.95;63.67
49423;BME280;36998;51.974;20.150;2022-10-29T05:40:49;100393.81;;;14.93;63.39
49423;BME280;36998;51.974;20.150;2022-10-29T05:43:15;100390.00;;;14.88;63.37
49423;BME280;36998;51.974;20.150;2022-10-29T05:45:41;100388.94;;;14.89;63.55
49423;BME280;36998;51.974;20.150;2022-10-29T05:48:08;100385.41;;;14.88;63.46
49423;BME280;36998;51.974;20.150;2022-10-29T05:50:34;100384.34;;;14.89;63.89
49423;BME280;36998;51.974;20.150;2022-10-29T05:53:02;100384.34;;;14.89;63.79
49423;BME280;36998;51.974;20.150;2022-10-29T05:55:30;100382.31;;;14.91;63.86
49423;BME280;36998;51.974;20.150;2022-10-29T05:57:57;100389.66;;;14.97;63.59
49423;BME280;36998;51.974;20.150;2022-10-29T06:00:24;100377.97;;;14.97;63.64
49423;BME280;36998;51.974;20.150;2022-10-29T06:02:50;100393.91;;;15.00;63.88
49423;BME280;36998;51.974;20.150;2022-10-29T06:05:16;100385.75;;;15.00;63.55
49423;BME280;36998;51.974;20.150;2022-10-29T06:07:41;100392.22;;;14.99;63.78
49423;BME280;36998;51.974;20.150;2022-10-29T06:10:07;100395.97;;;14.98;63.83
49423;BME280;36998;51.974;20.150;2022-10-29T06:12:33;100395.78;;;14.99;63.77
49423;BME280;36998;51.974;20.150;2022-10-29T06:14:59;100390.34;;;14.99;64.01
49423;BME280;36998;51.974;20.150;2022-10-29T06:17:25;100399.81;;;15.04;63.80
49423;BME280;36998;51.974;20.150;2022-10-29T06:19:50;100398.41;;;15.08;64.03
49423;BME280;36998;51.974;20.150;2022-10-29T06:22:16;100404.09;;;15.13;64.06
49423;BME280;36998;51.974;20.150;2022-10-29T06:24:42;100406.53;;;15.22;63.78
49423;BME280;36998;51.974;20.150;2022-10-29T06:27:07;100394.78;;;15.37;63.47
49423;BME280;36998;51.974;20.150;2022-10-29T06:29:33;100401.38;;;15.49;63.51
49423;BME280;36998;51.974;20.150;2022-10-29T06:31:58;100398.56;;;15.57;63.20
49423;BME280;36998;51.974;20.150;2022-10-29T06:34:24;100399.47;;;15.64;63.38
49423;BME280;36998;51.974;20.150;2022-10-29T06:36:49;100403.78;;;15.74;63.23
49423;BME280;36998;51.974;20.150;2022-10-29T06:39:16;100412.47;;;15.84;63.12
49423;BME280;36998;51.974;20.150;2022-10-29T06:41:43;100414.59;;;15.88;63.01
49423;BME280;36998;51.974;20.150;2022-10-29T06:44:08;100416.38;;;15.96;62.77
49423;BME280;36998;51.974;20.150;2022-10-29T06:46:33;100420.84;;;16.04;62.73
49423;BME280;36998;51.974;20.150;2022-10-29T06:49:00;100414.41;;;16.11;62.69
49423;BME280;36998;51.974;20.150;2022-10-29T06:51:26;100417.19;;;16.18;62.47
49423;BME280;36998;51.974;20.150;2022-10-29T06:53:51;100421.84;;;16.24;62.44
49423;BME280;36998;51.974;20.150;2022-10-29T06:56:20;100431.78;;;16.32;62.32
49423;BME280;36998;51.974;20.150;2022-10-29T06:58:46;100437.28;;;16.38;62.40
49423;BME280;36998;51.974;20.150;2022-10-29T07:01:11;100444.47;;;16.46;62.33
49423;BME280;36998;51.974;20.150;2022-10-29T07:03:37;100427.31;;;16.52;61.83
49423;BME280;36998;51.974;20.150;2022-10-29T07:06:03;100428.84;;;16.61;61.66
49423;BME280;36998;51.974;20.150;2022-10-29T07:08:28;100438.97;;;16.68;61.53
49423;BME280;36998;51.974;20.150;2022-10-29T07:10:55;100440.88;;;16.74;61.66
49423;BME280;36998;51.974;20.150;2022-10-29T07:13:20;100431.94;;;16.80;61.26
49423;BME280;36998;51.974;20.150;2022-10-29T07:15:46;100437.41;;;16.87;61.29
49423;BME280;36998;51.974;20.150;2022-10-29T07:18:11;100438.50;;;16.92;61.28
49423;BME280;36998;51.974;20.150;2022-10-29T07:20:39;100428.28;;;17.01;61.19
49423;BME280;36998;51.974;20.150;2022-10-29T07:23:05;100430.00;;;17.08;60.87
49423;BME280;36998;51.974;20.150;2022-10-29T07:25:32;100427.13;;;17.17;61.14
49423;BME280;36998;51.974;20.150;2022-10-29T07:28:12;100431.31;;;17.26;60.95
49423;BME280;36998;51.974;20.150;2022-10-29T07:30:38;100417.13;;;17.37;60.53
49423;BME280;36998;51.974;20.150;2022-10-29T07:33:04;100427.25;;;17.50;60.59
49423;BME280;36998;51.974;20.150;2022-10-29T07:35:29;100424.31;;;17.65;60.17
49423;BME280;36998;51.974;20.150;2022-10-29T07:38:02;100415.31;;;17.71;60.04
49423;BME280;36998;51.974;20.150;2022-10-29T07:40:27;100419.16;;;17.83;59.70
49423;BME280;36998;51.974;20.150;2022-10-29T07:42:53;100418.53;;;17.94;59.55
49423;BME280;36998;51.974;20.150;2022-10-29T07:45:19;100424.41;;;18.05;59.23
49423;BME280;36998;51.974;20.150;2022-10-29T07:47:46;100413.06;;;18.14;59.04
49423;BME280;36998;51.974;20.150;2022-10-29T07:50:11;100413.06;;;18.21;58.73
49423;BME280;36998;51.974;20.150;2022-10-29T07:52:40;100403.00;;;18.28;58.54
49423;BME280;36998;51.974;20.150;2022-10-29T07:55:06;100413.72;;;18.43;58.50
49423;BME280;36998;51.974;20.150;2022-10-29T07:57:32;100416.00;;;18.53;58.31
49423;BME280;36998;51.974;20.150;2022-10-29T07:59:58;100422.31;;;18.60;57.91
49423;BME280;36998;51.974;20.150;2022-10-29T08:02:24;100424.41;;;18.71;58.06
49423;BME280;36998;51.974;20.150;2022-10-29T08:04:49;100412.84;;;18.82;57.65
49423;BME280;36998;51.974;20.150;2022-10-29T08:07:15;100415.53;;;18.95;57.58
49423;BME280;36998;51.974;20.150;2022-10-29T08:09:40;100416.16;;;18.98;57.32
49423;BME280;36998;51.974;20.150;2022-10-29T08:12:10;100422.69;;;19.03;57.29
49423;BME280;36998;51.974;20.150;2022-10-29T08:14:35;100420.94;;;19.15;57.17
49423;BME280;36998;51.974;20.150;2022-10-29T08:17:01;100432.72;;;19.29;56.97
49423;BME280;36998;51.974;20.150;2022-10-29T08:19:27;100436.88;;;19.32;56.70
49423;BME280;36998;51.974;20.150;2022-10-29T08:21:55;100450.16;;;19.35;56.65
49423;BME280;36998;51.974;20.150;2022-10-29T08:24:20;100454.59;;;19.36;56.71
49423;BME280;36998;51.974;20.150;2022-10-29T08:26:46;100433.47;;;19.43;56.55
49423;BME280;36998;51.974;20.150;2022-10-29T08:29:11;100437.44;;;19.54;56.34
49423;BME280;36998;51.974;20.150;2022-10-29T08:31:37;100438.88;;;19.63;56.22
49423;BME280;36998;51.974;20.150;2022-10-29T08:34:02;100438.22;;;19.68;56.29
49423;BME280;36998;51.974;20.150;2022-10-29T08:36:28;100427.06;;;19.69;56.18
49423;BME280;36998;51.974;20.150;2022-10-29T08:38:53;100418.16;;;19.74;56.22
49423;BME280;36998;51.974;20.150;2022-10-29T08:41:35;100423.44;;;19.75;56.31
49423;BME280;36998;51.974;20.150;2022-10-29T08:46:45;100423.44;;;19.75;56.45
49423;BME280;36998;51.974;20.150;2022-10-29T08:51:57;100432.47;;;19.82;56.04
49423;BME280;36998;51.974;20.150;2022-10-29T08:54:24;100432.22;;;19.84;56.27
49423;BME280;36998;51.974;20.150;2022-10-29T08:56:53;100436.19;;;19.95;56.19
49423;BME280;36998;51.974;20.150;2022-10-29T08:59:23;100441.16;;;20.04;56.19
49423;BME280;36998;51.974;20.150;2022-10-29T09:01:50;100443.69;;;20.06;56.16
49423;BME280;36998;51.974;20.150;2022-10-29T09:04:32;100426.84;;;20.02;56.27
49423;BME280;36998;51.974;20.150;2022-10-29T09:07:24;100428.06;;;20.06;56.13
49423;BME280;36998;51.974;20.150;2022-10-29T09:10:11;100419.63;;;20.08;56.40
49423;BME280;36998;51.974;20.150;2022-10-29T09:18:18;100431.94;;;20.49;55.81
49423;BME280;36998;51.974;20.150;2022-10-29T09:20:58;100425.97;;;20.58;55.50
49423;BME280;36998;51.974;20.150;2022-10-29T09:26:16;100423.94;;;20.72;55.28
49423;BME280;36998;51.974;20.150;2022-10-29T09:31:30;100418.56;;;20.84;55.43
49423;BME280;36998;51.974;20.150;2022-10-29T09:34:07;100414.66;;;20.92;55.38
49423;BME280;36998;51.974;20.150;2022-10-29T09:36:36;100436.94;;;21.02;55.22
49423;BME280;36998;51.974;20.150;2022-10-29T09:39:08;100422.97;;;21.03;55.28
49423;BME280;36998;51.974;20.150;2022-10-29T09:41:35;100407.34;;;21.04;55.24
49423;BME280;36998;51.974;20.150;2022-10-29T09:44:08;100422.22;;;20.96;55.41
49423;BME280;36998;51.974;20.150;2022-10-29T09:46:46;100436.41;;;20.93;55.54
49423;BME280;36998;51.974;20.150;2022-10-29T09:52:01;100449.22;;;21.18;55.22
49423;BME280;36998;51.974;20.150;2022-10-29T09:54:29;100455.75;;;21.42;55.00
49423;BME280;36998;51.974;20.150;2022-10-29T09:56:57;100453.03;;;21.54;54.66
49423;BME280;36998;51.974;20.150;2022-10-29T09:59:28;100455.75;;;21.42;54.80
49423;BME280;36998;51.974;20.150;2022-10-29T10:01:57;100452.50;;;21.45;54.94
49423;BME280;36998;51.974;20.150;2022-10-29T10:04:29;100467.16;;;21.20;55.19
49423;BME280;36998;51.974;20.150;2022-10-29T10:09:25;100474.59;;;20.95;56.06
49423;BME280;36998;51.974;20.150;2022-10-29T10:11:51;100452.09;;;20.86;56.11
49423;BME280;36998;51.974;20.150;2022-10-29T10:14:21;100452.78;;;20.81;56.28
49423;BME280;36998;51.974;20.150;2022-10-29T10:16:59;100465.69;;;20.56;56.69
49423;BME280;36998;51.974;20.150;2022-10-29T10:19:27;100455.41;;;20.45;56.92
49423;BME280;36998;51.974;20.150;2022-10-29T10:21:59;100453.13;;;20.42;57.25
49423;BME280;36998;51.974;20.150;2022-10-29T10:24:35;100438.94;;;20.45;57.21
49423;BME280;36998;51.974;20.150;2022-10-29T10:29:43;100490.22;;;20.51;57.27
49423;BME280;36998;51.974;20.150;2022-10-29T10:32:17;100464.59;;;20.32;57.56
49423;BME280;36998;51.974;20.150;2022-10-29T10:34:43;100475.56;;;20.32;57.71
49423;BME280;36998;51.974;20.150;2022-10-29T10:39:42;100457.69;;;20.23;58.14
49423;BME280;36998;51.974;20.150;2022-10-29T10:42:26;100458.97;;;20.20;58.27
49423;BME280;36998;51.974;20.150;2022-10-29T10:44:57;100475.06;;;20.10;58.67
49423;BME280;36998;51.974;20.150;2022-10-29T10:47:27;100458.03;;;20.08;58.62
49423;BME280;36998;51.974;20.150;2022-10-29T10:50:09;100448.44;;;20.17;58.49
49423;BME280;36998;51.974;20.150;2022-10-29T10:52:36;100463.84;;;20.18;58.49
49423;BME280;36998;51.974;20.150;2022-10-29T10:55:07;100482.75;;;20.26;58.36
49423;BME280;36998;51.974;20.150;2022-10-29T10:57:38;100473.41;;;20.41;58.00
49423;BME280;36998;51.974;20.150;2022-10-29T11:02:47;100472.09;;;20.93;56.72
49423;BME280;36998;51.974;20.150;2022-10-29T11:05:39;100453.09;;;21.28;55.90
49423;BME280;36998;51.974;20.150;2022-10-29T11:08:18;100462.75;;;21.38;55.50
49423;BME280;36998;51.974;20.150;2022-10-29T11:10:54;100451.38;;;21.53;55.41
49423;BME280;36998;51.974;20.150;2022-10-29T11:13:22;100473.44;;;21.46;55.23
49423;BME280;36998;51.974;20.150;2022-10-29T11:15:55;100453.03;;;21.35;55.17
49423;BME280;36998;51.974;20.150;2022-10-29T11:18:44;100441.38;;;21.58;54.92
49423;BME280;36998;51.974;20.150;2022-10-29T11:21:20;100441.00;;;21.85;53.80
49423;BME280;36998;51.974;20.150;2022-10-29T11:26:27;100436.81;;;21.94;53.35
49423;BME280;36998;51.974;20.150;2022-10-29T11:31:39;100450.56;;;21.94;53.24
49423;BME280;36998;51.974;20.150;2022-10-29T11:36:39;100459.44;;;21.47;54.13
49423;BME280;36998;51.974;20.150;2022-10-29T11:39:11;100482.81;;;21.38;53.98
49423;BME280;36998;51.974;20.150;2022-10-29T11:41:43;100456.63;;;21.17;54.61
49423;BME280;36998;51.974;20.150;2022-10-29T11:44:13;100463.69;;;21.25;54.54
49423;BME280;36998;51.974;20.150;2022-10-29T11:52:08;100471.59;;;21.58;53.75
49423;BME280;36998;51.974;20.150;2022-10-29T12:04:00;100439.41;;;22.96;50.67
49423;BME280;36998;51.974;20.150;2022-10-29T12:06:39;100431.56;;;23.57;48.97
49423;BME280;36998;51.974;20.150;2022-10-29T12:12:09;100426.28;;;23.27;49.37
49423;BME280;36998;51.974;20.150;2022-10-29T12:14:48;100430.41;;;23.01;49.93
49423;BME280;36998;51.974;20.150;2022-10-29T12:17:20;100419.53;;;23.75;48.81
49423;BME280;36998;51.974;20.150;2022-10-29T12:19:52;100408.00;;;24.40;47.43
49423;BME280;36998;51.974;20.150;2022-10-29T12:25:03;100426.41;;;23.89;48.38
49423;BME280;36998;51.974;20.150;2022-10-29T12:27:40;100429.09;;;23.44;49.19
49423;BME280;36998;51.974;20.150;2022-10-29T12:30:12;100437.94;;;23.05;49.99
49423;BME280;36998;51.974;20.150;2022-10-29T12:33:03;100425.69;;;23.53;49.22
49423;BME280;36998;51.974;20.150;2022-10-29T12:35:57;100429.22;;;23.37;49.66
49423;BME280;36998;51.974;20.150;2022-10-29T12:38:40;100439.00;;;23.16;49.84
49423;BME280;36998;51.974;20.150;2022-10-29T12:41:23;100458.88;;;23.18;49.71
49423;BME280;36998;51.974;20.150;2022-10-29T12:43:58;100462.84;;;23.22;49.92
49423;BME280;36998;51.974;20.150;2022-10-29T12:46:40;100448.25;;;23.50;49.30
49423;BME280;36998;51.974;20.150;2022-10-29T12:49:39;100431.88;;;24.46;47.14
49423;BME280;36998;51.974;20.150;2022-10-29T12:52:15;100432.75;;;24.86;45.87
49423;BME280;36998;51.974;20.150;2022-10-29T12:54:45;100427.84;;;24.93;45.24
49423;BME280;36998;51.974;20.150;2022-10-29T12:59:37;100442.31;;;25.00;45.09
49423;BME280;36998;51.974;20.150;2022-10-29T13:02:18;100435.50;;;25.25;44.67
49423;BME280;36998;51.974;20.150;2022-10-29T13:15:26;100423.34;;;25.26;44.24
49423;BME280;36998;51.974;20.150;2022-10-29T13:17:54;100440.69;;;25.21;44.07
49423;BME280;36998;51.974;20.150;2022-10-29T13:20:23;100432.41;;;25.43;44.06
49423;BME280;36998;51.974;20.150;2022-10-29T13:22:55;100434.34;;;25.42;43.86
49423;BME280;36998;51.974;20.150;2022-10-29T13:30:36;100436.28;;;25.03;44.40
49423;BME280;36998;51.974;20.150;2022-10-29T13:36:33;100431.25;;;24.61;45.06
49423;BME280;36998;51.974;20.150;2022-10-29T13:41:22;100433.91;;;24.39;44.93
49423;BME280;36998;51.974;20.150;2022-10-29T13:44:02;100430.03;;;24.06;45.71
49423;BME280;36998;51.974;20.150;2022-10-29T13:47:03;100425.16;;;23.97;46.02
49423;BME280;36998;51.974;20.150;2022-10-29T13:49:31;100433.53;;;23.85;46.20
49423;BME280;36998;51.974;20.150;2022-10-29T13:52:26;100425.47;;;23.55;46.80
49423;BME280;36998;51.974;20.150;2022-10-29T13:54:55;100428.34;;;23.20;47.65
49423;BME280;36998;51.974;20.150;2022-10-29T13:57:32;100418.53;;;22.77;48.49
49423;BME280;36998;51.974;20.150;2022-10-29T14:00:14;100429.19;;;22.38;49.50
49423;BME280;36998;51.974;20.150;2022-10-29T14:05:29;100437.47;;;21.78;50.86
49423;BME280;36998;51.974;20.150;2022-10-29T14:08:00;100433.59;;;21.55;51.45
49423;BME280;36998;51.974;20.150;2022-10-29T14:15:34;100444.78;;;20.80;53.30
49423;BME280;36998;51.974;20.150;2022-10-29T14:18:24;100451.13;;;20.55;54.03
49423;BME280;36998;51.974;20.150;2022-10-29T14:20:57;100453.16;;;20.35;54.51
49423;BME280;36998;51.974;20.150;2022-10-29T14:23:23;100451.88;;;20.13;55.14
49423;BME280;36998;51.974;20.150;2022-10-29T14:25:51;100441.66;;;19.95;55.64
49423;BME280;36998;51.974;20.150;2022-10-29T14:28:18;100437.53;;;19.79;56.19
49423;BME280;36998;51.974;20.150;2022-10-29T14:30:46;100442.03;;;19.67;56.45
49423;BME280;36998;51.974;20.150;2022-10-29T14:33:21;100446.72;;;19.53;56.93
49423;BME280;36998;51.974;20.150;2022-10-29T14:35:47;100446.13;;;19.44;57.31
49423;BME280;36998;51.974;20.150;2022-10-29T14:38:13;100449.31;;;19.34;57.60
49423;BME280;36998;51.974;20.150;2022-10-29T14:40:41;100445.34;;;19.24;57.98
49423;BME280;36998;51.974;20.150;2022-10-29T14:43:24;100444.75;;;19.15;58.02